Time;durP1;ratioP1;P1;durP2;ratioP2;P2;SDS_P1;SDS_P2;PMS_P1;PMS_P2;Temp;Humidity;BMP_temperature;BMP_pressure;BME280_temperature;BME280_humidity;BME280_pressure;Samples;Min_cycle;Max_cycle;Signal;HPM_P1;HPM_P2
2021/12/19 00:09:35;;;;;;;2.72;0.68;;;;;;;;;;5117474;28;20039;-78
2021/12/19 00:12:04;;;;;;;1.88;0.50;;;;;;;;;;5117022;28;20028;-80
2021/12/19 00:14:31;;;;;;;1.20;0.60;;;;;;;;;;5115413;28;20484;-78
2021/12/19 00:16:58;;;;;;;2.08;0.80;;;;;;;;;;5115565;28;20061;-78
2021/12/19 00:19:25;;;;;;;1.75;0.60;;;;;;;;;;5117048;28;20072;-78
2021/12/19 00:21:52;;;;;;;2.42;0.63;;;;;;;;;;5116834;28;20023;-77
2021/12/19 00:24:20;;;;;;;1.38;0.70;;;;;;;;;;5116600;28;20056;-76
2021/12/19 00:26:47;;;;;;;1.38;0.70;;;;;;;;;;5116475;28;20023;-76
2021/12/19 00:29:15;;;;;;;2.38;0.73;;;;;;;;;;5116768;28;20169;-76
2021/12/19 00:31:45;;;;;;;2.50;0.60;;;;;;;;;;5115277;28;20026;-78
2021/12/19 00:34:13;;;;;;;2.00;0.73;;;;;;;;;;5116734;28;20020;-77
2021/12/19 00:36:41;;;;;;;3.28;0.60;;;;;;;;;;5116674;28;20388;-76
2021/12/19 00:39:08;;;;;;;2.10;0.75;;;;;;;;;;5116525;28;20099;-77
2021/12/19 00:41:36;;;;;;;2.03;0.85;;;;;;;;;;5116197;28;20020;-77
2021/12/19 00:44:11;;;;;;;1.65;0.52;;;;;;;;;;5116255;28;20524;-76
2021/12/19 00:46:47;;;;;;;2.53;0.70;;;;;;;;;;5114858;28;20104;-75
2021/12/19 00:49:15;;;;;;;1.30;0.70;;;;;;;;;;5114741;28;20028;-76
2021/12/19 00:51:42;;;;;;;2.05;0.77;;;;;;;;;;5114900;28;20023;-76
2021/12/19 00:54:10;;;;;;;3.33;0.60;;;;;;;;;;5114744;28;20027;-77
2021/12/19 00:56:41;;;;;;;1.20;0.63;;;;;;;;;;5114682;28;20020;-77
2021/12/19 00:59:09;;;;;;;2.30;0.88;;;;;;;;;;5116088;28;20019;-77
2021/12/19 01:01:37;;;;;;;1.38;0.70;;;;;;;;;;5114301;28;20111;-77
2021/12/19 01:04:06;;;;;;;1.02;0.38;;;;;;;;;;5114450;28;20491;-77
2021/12/19 01:06:33;;;;;;;1.17;0.57;;;;;;;;;;5116032;28;20016;-77
2021/12/19 01:09:00;;;;;;;2.05;0.70;;;;;;;;;;5114450;28;20301;-78
2021/12/19 01:11:27;;;;;;;2.53;0.52;;;;;;;;;;5113593;28;20114;-77
2021/12/19 01:13:56;;;;;;;3.20;0.60;;;;;;;;;;5114394;28;20023;-77
2021/12/19 01:16:23;;;;;;;2.38;0.70;;;;;;;;;;5114864;28;20020;-76
2021/12/19 01:18:50;;;;;;;2.22;0.90;;;;;;;;;;5115583;28;20380;-78
2021/12/19 01:21:18;;;;;;;1.58;0.52;;;;;;;;;;5115636;28;20019;-76
2021/12/19 01:23:45;;;;;;;0.75;0.40;;;;;;;;;;5114463;28;20076;-76
2021/12/19 01:26:12;;;;;;;2.00;0.60;;;;;;;;;;5115573;28;20023;-77
2021/12/19 01:28:40;;;;;;;1.52;0.55;;;;;;;;;;5115753;28;20027;-77
2021/12/19 01:31:07;;;;;;;1.48;0.55;;;;;;;;;;5115736;28;20030;-77
2021/12/19 02:53:37;;;;;;;2.92;0.30;;;36.80;91.30;;;;;;5153952;27;20525;-76
2021/12/19 02:56:08;;;;;;;1.35;0.30;;;36.90;89.70;;;;;;5136852;27;20395;-77
2021/12/19 02:58:37;;;;;;;1.08;0.77;;;37.20;90.30;;;;;;5155286;27;20093;-77
2021/12/19 03:01:08;;;;;;;1.48;0.40;;;36.80;88.60;;;;;;5137254;27;20015;-78
2021/12/19 03:03:36;;;;;;;3.30;0.40;;;36.50;89.70;;;;;;5154900;27;20023;-77
2021/12/19 03:06:05;;;;;;;0.57;0.32;;;36.90;89.40;;;;;;5154928;27;20030;-78
2021/12/19 03:08:33;;;;;;;1.13;0.28;;;36.70;88.00;;;;;;5154883;27;20030;-76
2021/12/19 03:19:19;;;;;;;1.55;0.30;;;37.30;90.00;;;;;;5154687;27;20110;-74
2021/12/19 03:21:46;;;;;;;1.33;0.45;;;37.70;89.20;;;;;;5154582;27;20015;-75
2021/12/19 03:24:14;;;;;;;0.85;0.40;;;37.60;87.00;;;;;;5154510;27;20023;-74
2021/12/19 03:26:41;;;;;;;2.08;0.50;;;37.60;86.50;;;;;;5154572;27;20050;-74
2021/12/19 03:29:08;;;;;;;1.67;0.25;;;37.40;85.70;;;;;;5154658;27;20095;-74
2021/12/19 03:31:36;;;;;;;1.42;0.38;;;37.10;85.50;;;;;;5135673;27;20114;-75
2021/12/19 03:34:03;;;;;;;2.33;0.40;;;36.80;86.20;;;;;;5135816;27;20165;-74
2021/12/19 03:36:31;;;;;;;0.50;0.30;;;36.70;86.10;;;;;;5139207;27;20533;-75
2021/12/19 03:39:01;;;;;;;2.50;0.47;;;36.40;87.10;;;;;;5158808;27;20026;-75
2021/12/19 03:41:34;;;;;;;1.50;0.30;;;36.30;87.00;;;;;;5139733;27;20027;-77
2021/12/19 03:44:06;;;;;;;1.48;0.40;;;36.30;86.80;;;;;;5140233;27;20022;-77
2021/12/19 03:46:34;;;;;;;1.02;0.30;;;36.40;87.80;;;;;;5158609;27;20100;-75
2021/12/19 03:49:03;;;;;;;1.10;0.40;;;36.20;87.80;;;;;;5158584;27;20018;-74
2021/12/19 03:51:30;;;;;;;1.67;0.43;;;35.90;87.20;;;;;;5158474;27;20011;-74
2021/12/19 03:53:57;;;;;;;2.85;0.47;;;35.50;85.90;;;;;;5139651;27;20494;-74
2021/12/19 03:56:25;;;;;;;2.95;0.68;;;;;;;;;;5158294;27;20533;-74
2021/12/19 03:58:52;;;;;;;1.63;0.57;;;;;;;;;;5139643;27;20506;-75
2021/12/19 04:01:19;;;;;;;0.60;0.35;;;;;;;;;;5158082;27;20015;-75
2021/12/19 04:03:47;;;;;;;1.38;0.60;;;;;;;;;;5139667;27;20014;-75
2021/12/19 04:06:14;;;;;;;1.95;0.60;;;;;;;;;;5139147;27;20408;-73
2021/12/19 04:08:41;;;;;;;2.28;0.50;;;;;;;;;;5158017;27;20072;-75
2021/12/19 04:11:08;;;;;;;2.33;0.60;;;;;;;;;;5158161;27;20034;-74
2021/12/19 04:13:36;;;;;;;2.88;0.40;;;;;;;;;;5139177;27;20019;-74
2021/12/19 04:16:03;;;;;;;1.13;0.50;;;;;;;;;;5157788;27;20027;-77
2021/12/19 04:18:30;;;;;;;1.45;0.52;;;;;;;;;;5157990;27;20022;-74
2021/12/19 04:20:57;;;;;;;3.42;0.50;;;;;;;;;;5138893;27;20023;-75
2021/12/19 04:23:26;;;;;;;2.33;0.60;;;;;;;;;;5157863;27;20042;-75
2021/12/19 04:25:53;;;;;;;2.22;0.77;;;;;;;;;;5157811;27;20386;-76
2021/12/19 04:28:20;;;;;;;3.17;0.65;;;;;;;;;;5157862;27;20033;-76
2021/12/19 04:30:48;;;;;;;1.73;0.80;;;;;;;;;;5138885;27;20044;-74
2021/12/19 04:33:15;;;;;;;4.05;0.80;;;;;;;;;;5138940;27;20487;-74
2021/12/19 04:35:45;;;;;;;4.53;1.00;;;;;;;;;;5157711;27;20106;-74
2021/12/19 04:41:16;;;;;;;4.43;0.90;;;;;;;;;;5157652;27;20058;-74
2021/12/19 04:52:35;;;;;;;6.00;0.93;;;;;;;;;;5157355;27;20038;-74
2021/12/19 04:58:13;;;;;;;3.70;0.98;;;;;;;;;;5157082;27;20023;-74
2021/12/19 05:00:21;;;;;;;5.57;0.95;;;;;;;;;;5152722;27;20031;-74
2021/12/19 05:05:31;;;;;;;3.83;1.13;;;;;;;;;;5156894;27;20029;-74
2021/12/19 05:16:16;;;;;;;2.38;1.20;;;;;;;;;;5156526;27;20075;-74
2021/12/19 05:18:45;;;;;;;4.23;1.30;;;;;;;;;;5137980;27;20041;-73
2021/12/19 05:21:19;;;;;;;3.67;1.47;;;;;;;;;;5137902;27;20262;-74
2021/12/19 05:26:14;;;;;;;2.92;0.88;;;31.00;99.90;;;;;;5156412;27;20132;-73
2021/12/19 05:28:42;;;;;;;1.95;0.50;;;31.10;99.90;;;;;;5137607;27;20110;-72
2021/12/19 05:31:09;;;;;;;3.63;1.15;;;31.20;99.90;;;;;;5137585;27;20039;-72
2021/12/19 05:33:36;;;;;;;0.68;0.40;;;31.40;99.90;;;;;;5156103;27;20074;-72
2021/12/19 05:46:38;;;;;;;1.27;0.30;;;31.90;97.00;;;;;;5156328;27;20027;-73
2021/12/19 05:49:06;;;;;;;2.25;0.43;;;31.90;96.00;;;;;;5137493;27;20039;-72
2021/12/19 05:51:35;;;;;;;2.28;0.40;;;31.80;95.20;;;;;;5156169;27;20023;-73
2021/12/19 05:54:02;;;;;;;1.48;0.50;;;31.70;95.00;;;;;;5155860;27;20088;-73
2021/12/19 05:56:30;;;;;;;1.27;0.63;;;31.60;94.30;;;;;;5137542;27;20023;-73
2021/12/19 05:58:57;;;;;;;1.92;0.65;;;;;;;;;;5155709;27;20382;-73
2021/12/19 06:01:24;;;;;;;1.10;0.25;;;;;;;;;;5136945;27;20046;-73
2021/12/19 06:03:51;;;;;;;1.90;0.50;;;;;;;;;;5155583;27;20019;-72
2021/12/19 06:06:18;;;;;;;1.48;0.40;;;;;;;;;;5137001;27;20470;-73
2021/12/19 06:08:46;;;;;;;1.75;0.40;;;;;;;;;;5136866;27;20019;-73
2021/12/19 06:11:14;;;;;;;2.50;0.40;;;;;;;;;;5155332;27;20065;-73
2021/12/19 06:13:42;;;;;;;2.92;0.55;;;;;;;;;;5155371;27;20023;-73
2021/12/19 06:16:09;;;;;;;0.70;0.35;;;;;;;;;;5155376;27;20030;-72
2021/12/19 06:18:36;;;;;;;1.95;0.60;;;;;;;;;;5136273;27;20019;-73
2021/12/19 06:21:04;;;;;;;1.90;0.43;;;;;;;;;;5136586;27;20113;-72
2021/12/19 06:23:33;;;;;;;0.85;0.50;;;;;;;;;;5155410;27;20014;-72
2021/12/19 06:26:00;;;;;;;3.53;0.50;;;;;;;;;;5136356;27;20023;-73
2021/12/19 06:28:28;;;;;;;1.45;0.40;;;;;;;;;;5136609;27;20394;-72
2021/12/19 06:30:55;;;;;;;1.23;0.30;;;;;;;;;;5136421;27;20022;-73
2021/12/19 06:33:22;;;;;;;0.98;0.30;;;;;;;;;;5155321;27;20026;-73
2021/12/19 06:35:49;;;;;;;0.75;0.30;;;;;;;;;;5155089;27;20055;-73
2021/12/19 06:38:16;;;;;;;0.85;0.30;;;;;;;;;;5155275;27;20058;-73
2021/12/19 06:40:43;;;;;;;1.50;0.40;;;;;;;;;;5155142;27;20089;-73
2021/12/19 06:43:11;;;;;;;2.03;0.50;;;;;;;;;;5136520;27;20029;-72
2021/12/19 06:45:38;;;;;;;1.50;0.50;;;;;;;;;;5136145;27;20030;-72
2021/12/19 06:48:05;;;;;;;2.00;0.50;;;;;;;;;;5136472;27;20113;-72
2021/12/19 06:50:32;;;;;;;2.15;0.55;;;;;;;;;;5136113;27;20545;-73
2021/12/19 06:53:00;;;;;;;2.28;0.52;;;;;;;;;;5136219;27;20425;-73
2021/12/19 06:55:30;;;;;;;2.17;0.32;;;;;;;;;;5136225;27;20033;-73
2021/12/19 06:57:57;;;;;;;1.15;0.28;;;;;;;;;;5136121;27;20023;-73
2021/12/19 07:00:26;;;;;;;1.75;0.70;;;;;;;;;;5154967;27;20539;-73
2021/12/19 07:02:54;;;;;;;4.47;3.17;;;;;;;;;;5154652;27;20015;-73
2021/12/19 07:05:22;;;;;;;2.95;2.10;;;;;;;;;;5154696;27;20023;-73
2021/12/19 07:07:49;;;;;;;1.02;0.50;;;;;;;;;;5154759;27;20023;-73
2021/12/19 07:10:16;;;;;;;1.52;0.50;;;;;;;;;;5154220;27;20527;-74
2021/12/19 07:12:43;;;;;;;0.63;0.40;;;;;;;;;;5136235;27;20023;-73
2021/12/19 07:15:14;;;;;;;2.25;0.70;;;;;;;;;;5154556;27;20027;-73
2021/12/19 07:17:41;;;;;;;1.00;0.40;;;;;;;;;;5135630;27;20019;-74
2021/12/19 07:20:09;;;;;;;1.05;0.40;;;;;;;;;;5154581;27;20027;-74
2021/12/19 07:22:36;;;;;;;1.27;0.38;;;;;;;;;;5135605;27;20015;-73
2021/12/19 07:25:03;;;;;;;3.42;0.50;;;;;;;;;;5154542;27;20398;-73
2021/12/19 07:27:30;;;;;;;0.95;0.50;;;;;;;;;;5154496;27;20030;-73
2021/12/19 07:29:58;;;;;;;1.50;0.45;;;;;;;;;;5135998;27;20072;-73
2021/12/19 07:32:25;;;;;;;1.60;0.60;;;;;;;;;;5154352;27;20408;-71
2021/12/19 07:34:52;;;;;;;2.13;0.60;;;;;;;;;;5135498;27;20027;-75
2021/12/19 07:37:20;;;;;;;2.28;0.57;;;;;;;;;;5154395;27;20011;-71
2021/12/19 07:39:59;;;;;;;2.10;0.40;;;;;;;;;;5154549;27;20533;-70
2021/12/19 07:42:26;;;;;;;2.90;0.60;;;;;;;;;;5135455;27;20026;-72
2021/12/19 07:44:53;;;;;;;2.90;1.02;;;;;;;;;;5154322;27;20019;-72
2021/12/19 07:47:20;;;;;;;2.58;0.60;;;;;;;;;;5135312;27;20402;-72
2021/12/19 07:49:47;;;;;;;2.35;0.60;;;;;;;;;;5154442;27;20022;-72
2021/12/19 07:52:14;;;;;;;3.47;0.60;;;;;;;;;;5154190;27;20509;-72
2021/12/19 07:54:41;;;;;;;0.93;0.38;;;;;;;;;;5135513;27;20117;-72
2021/12/19 07:57:09;;;;;;;1.90;0.70;;;;;;;;;;5135655;27;20031;-72
2021/12/19 07:59:36;;;;;;;4.60;3.25;;;;;;;;;;5154226;27;20015;-72
2021/12/19 08:02:04;;;;;;;2.92;1.27;;;;;;;;;;5154110;27;20479;-72
2021/12/19 08:04:32;;;;;;;14.13;8.45;;;;;;;;;;5154157;27;20023;-72
2021/12/19 08:06:59;;;;;;;16.23;10.68;;;;;;;;;;5135112;27;20109;-72
2021/12/19 08:09:46;;;;;;;4.53;2.80;;;;;;;;;;5154115;27;20463;-72
2021/12/19 08:12:13;;;;;;;5.15;3.33;;;;;;;;;;5154019;27;20018;-72
2021/12/19 08:14:40;;;;;;;1.98;1.30;;;;;;;;;;5135233;27;20380;-72
2021/12/19 08:17:07;;;;;;;2.47;1.00;;;;;;;;;;5154013;27;20131;-71
2021/12/19 08:19:35;;;;;;;0.63;0.50;;;;;;;;;;5154195;27;20031;-71
2021/12/19 08:22:02;;;;;;;1.63;0.70;;;;;;;;;;5137628;27;20019;-72
2021/12/19 08:24:29;;;;;;;2.25;0.93;;;;;;;;;;5157806;27;20023;-72
2021/12/19 08:26:56;;;;;;;1.23;0.57;;;;;;;;;;5138953;27;20034;-72
2021/12/19 08:29:23;;;;;;;2.40;0.73;;;;;;;;;;5157880;27;20023;-71
2021/12/19 08:31:50;;;;;;;1.17;0.70;;;;;;;;;;5138964;27;20037;-71
2021/12/19 08:34:17;;;;;;;4.18;1.13;;;;;;;;;;5157698;27;20108;-71
2021/12/19 08:36:45;;;;;;;2.35;0.60;;;;;;;;;;5157768;27;20019;-71
2021/12/19 08:39:12;;;;;;;2.03;0.73;;;;;;;;;;5138724;27;20022;-71
2021/12/19 08:41:40;;;;;;;1.83;0.70;;;;;;;;;;5157670;27;20409;-71
2021/12/19 08:44:07;;;;;;;2.13;0.70;;;;;;;;;;5157547;27;20427;-71
2021/12/19 08:46:35;;;;;;;2.78;0.88;;;;;;;;;;5138753;27;20027;-71
2021/12/19 08:49:04;;;;;;;1.63;0.70;;;;;;;;;;5157394;27;20098;-71
2021/12/19 08:51:34;;;;;;;1.30;0.70;;;;;;;;;;5157349;27;20015;-70
2021/12/19 08:54:02;;;;;;;1.63;0.65;;;;;;;;;;5157134;27;20035;-71
2021/12/19 08:56:30;;;;;;;1.98;0.90;;;;;;;;;;5138443;27;20019;-70
2021/12/19 08:58:57;;;;;;;2.53;0.73;;;;;;;;;;5157116;27;20097;-71
2021/12/19 09:01:24;;;;;;;3.10;0.70;;;;;;;;;;5157342;27;20015;-71
2021/12/19 09:03:51;;;;;;;1.38;0.75;;;;;;;;;;5138220;27;20366;-71
2021/12/19 09:06:19;;;;;;;5.45;0.82;;;;;;;;;;5157082;27;20033;-71
2021/12/19 09:08:46;;;;;;;1.88;0.50;;;;;;;;;;5156966;27;20027;-71
2021/12/19 09:11:13;;;;;;;2.13;0.63;;;;;;;;;;5157049;27;20022;-71
2021/12/19 09:13:40;;;;;;;1.48;0.50;;;;;;;;;;5156933;27;20023;-71
2021/12/19 09:16:08;;;;;;;1.55;0.73;;;;;;;;;;5156775;27;20364;-71
2021/12/19 09:18:35;;;;;;;0.77;0.50;;;;;;;;;;5137845;27;20087;-71
2021/12/19 09:21:02;;;;;;;1.52;0.60;;;;;;;;;;5138363;27;20026;-71
2021/12/19 09:23:29;;;;;;;1.95;0.60;;;;;;;;;;5156694;27;20019;-72
2021/12/19 09:25:56;;;;;;;1.75;0.50;;;;;;;;;;5137859;27;20027;-71
2021/12/19 09:28:24;;;;;;;1.52;0.60;;;;;;;;;;5156687;27;20033;-71
2021/12/19 09:30:51;;;;;;;2.25;0.50;;;;;;;;;;5137654;27;20023;-71
2021/12/19 09:33:18;;;;;;;1.33;0.50;;;;;;;;;;5155953;27;20030;-71
2021/12/19 09:35:45;;;;;;;1.83;0.50;;;;;;;;;;5156550;27;20097;-71
2021/12/19 09:38:14;;;;;;;1.00;0.40;;;;;;;;;;5137715;27;20156;-70
2021/12/19 09:40:43;;;;;;;1.58;0.50;;;;;;;;;;5156462;27;20022;-71
2021/12/19 09:43:41;;;;;;;1.45;0.40;;;;;;;;;;5137594;27;20074;-71
2021/12/19 09:46:16;;;;;;;0.70;0.40;;;;;;;;;;5156504;27;20026;-71
2021/12/19 09:48:44;;;;;;;3.33;0.52;;;;;;;;;;5156350;27;20033;-70
2021/12/19 09:51:12;;;;;;;1.08;0.55;;;;;;;;;;5137494;27;20018;-70
2021/12/19 09:53:40;;;;;;;2.25;0.55;;;;;;;;;;5155841;27;20035;-71
2021/12/19 09:56:07;;;;;;;0.77;0.40;;;;;;;;;;5156109;27;20034;-71
2021/12/19 09:58:36;;;;;;;1.73;0.30;;;;;;;;;;5156056;27;20011;-72
2021/12/19 10:01:05;;;;;;;1.05;0.55;;;;;;;;;;5156060;27;20053;-71
2021/12/19 10:03:35;;;;;;;2.10;0.40;;;;;;;;;;5156037;27;20470;-73
2021/12/19 10:06:14;;;;;;;0.60;0.40;;;;;;;;;;5155968;27;20038;-75
2021/12/19 10:08:41;;;;;;;0.90;0.50;;;;;;;;;;5156080;27;20118;-74
2021/12/19 10:11:30;;;;;;;1.20;0.40;;;;;;;;;;5155974;27;20027;-75
2021/12/19 10:13:58;;;;;;;1.15;0.40;;;;;;;;;;5156055;27;20137;-74
2021/12/19 10:16:27;;;;;;;1.20;0.55;;;;;;;;;;5155615;27;20041;-74
2021/12/19 10:18:57;;;;;;;2.75;0.32;;;;;;;;;;5155801;27;20530;-74
2021/12/19 10:21:24;;;;;;;1.07;0.40;;;;;;;;;;5136897;27;20046;-73
2021/12/19 10:23:52;;;;;;;1.00;0.50;;;;;;;;;;5155615;27;20311;-75
2021/12/19 10:26:20;;;;;;;0.93;0.45;;;;;;;;;;5155662;27;20023;-75
2021/12/19 10:28:54;;;;;;;0.68;0.30;;;;;;;;;;5155414;27;20029;-74
2021/12/19 10:31:22;;;;;;;2.42;0.43;;;;;;;;;;5136615;27;20155;-75
2021/12/19 10:33:49;;;;;;;0.65;0.40;;;;;;;;;;5155593;27;20022;-75
2021/12/19 10:36:18;;;;;;;1.77;0.50;;;;;;;;;;5155270;27;20063;-75
2021/12/19 10:38:50;;;;;;;1.73;0.50;;;;;;;;;;5136450;27;20037;-74
2021/12/19 10:41:21;;;;;;;1.48;0.40;;;;;;;;;;5155429;27;20048;-75
2021/12/19 10:43:58;;;;;;;0.60;0.40;;;;;;;;;;5154990;27;20359;-74
2021/12/19 10:46:29;;;;;;;1.88;0.60;;;;;;;;;;5154914;27;20053;-76
2021/12/19 10:48:56;;;;;;;0.40;0.40;;;;;;;;;;5155265;27;20037;-75
2021/12/19 10:51:24;;;;;;;0.52;0.30;;;;;;;;;;5136607;27;20402;-75
2021/12/19 10:53:53;;;;;;;2.05;0.47;;;;;;;;;;5154952;27;20031;-74
2021/12/19 10:56:25;;;;;;;1.77;0.40;;;;;;;;;;5136121;27;20121;-76
2021/12/19 10:58:56;;;;;;;3.20;0.60;;;;;;;;;;5155210;27;20106;-74
2021/12/19 11:01:30;;;;;;;0.60;0.30;;;;;;;;;;5155217;27;20093;-75
2021/12/19 11:04:01;;;;;;;1.58;0.40;;;;;;;;;;5136072;27;20023;-75
2021/12/19 11:06:28;;;;;;;2.47;0.50;;;;;;;;;;5155064;27;20087;-75
2021/12/19 11:08:56;;;;;;;0.80;0.40;;;;;;;;;;5154884;27;20505;-75
2021/12/19 11:11:39;;;;;;;0.57;0.32;;;;;;;;;;5154948;27;20047;-75
2021/12/19 11:14:07;;;;;;;0.73;0.30;;;;;;;;;;5154918;27;20015;-76
2021/12/19 11:16:37;;;;;;;1.02;0.50;;;;;;;;;;5154908;27;20098;-76
2021/12/19 11:19:05;;;;;;;2.30;0.40;;;;;;;;;;5155011;27;20053;-76
2021/12/19 11:21:34;;;;;;;0.82;0.38;;;;;;;;;;5135887;27;20019;-75
2021/12/19 11:24:03;;;;;;;0.70;0.43;;;;;;;;;;5136323;27;20015;-75
2021/12/19 11:26:30;;;;;;;1.80;0.40;;;;;;;;;;5154708;27;20019;-76
2021/12/19 11:28:58;;;;;;;2.67;0.80;;;;;;;;;;5154823;27;20029;-76
2021/12/19 11:31:27;;;;;;;1.35;0.57;;;;;;;;;;5154762;27;20018;-76
2021/12/19 11:34:00;;;;;;;1.90;0.47;;;;;;;;;;5154589;27;20427;-76
2021/12/19 11:36:32;;;;;;;1.15;0.40;;;;;;;;;;5135772;27;20031;-76
2021/12/19 11:39:02;;;;;;;2.17;0.50;;;;;;;;;;5154647;27;20068;-76
2021/12/19 11:41:31;;;;;;;1.27;0.40;;;;;;;;;;5154601;27;20038;-75
2021/12/19 11:44:03;;;;;;;1.13;0.40;;;;;;;;;;5135881;27;20023;-75
2021/12/19 11:46:49;;;;;;;0.82;0.32;;;;;;;;;;5136106;27;20027;-75
2021/12/19 11:49:24;;;;;;;2.40;0.50;;;;;;;;;;5154572;27;20029;-76
2021/12/19 11:52:10;;;;;;;2.38;0.50;;;;;;;;;;5154276;27;20023;-76
2021/12/19 11:54:38;;;;;;;1.75;0.50;;;;;;;;;;5154228;27;20102;-76
2021/12/19 11:57:11;;;;;;;0.60;0.40;;;;;;;;;;5157217;27;20094;-76
2021/12/19 11:59:39;;;;;;;2.28;0.45;;;;;;;;;;5158658;27;20544;-75
2021/12/19 12:02:25;;;;;;;0.80;0.40;;;;;;;;;;5158721;27;20015;-76
2021/12/19 12:05:13;;;;;;;1.10;0.40;;;;;;;;;;5139937;27;20451;-76
2021/12/19 12:08:10;;;;;;;1.27;0.47;;;;;;;;;;5158584;27;20023;-76
2021/12/19 12:10:50;;;;;;;1.90;0.40;;;;;;;;;;5137409;27;20035;-76
2021/12/19 12:13:24;;;;;;;1.20;0.40;;;;;;;;;;5158528;27;20021;-76
2021/12/19 12:15:54;;;;;;;1.73;0.52;;;;;;;;;;5139245;27;20026;-76
2021/12/19 12:18:33;;;;;;;1.73;0.65;;;;;;;;;;5158357;27;20137;-76
2021/12/19 12:21:25;;;;;;;1.60;0.60;;;;;;;;;;5139666;27;20045;-75
2021/12/19 12:23:59;;;;;;;4.25;1.05;;;;;;;;;;5139772;27;20039;-76
2021/12/19 12:26:29;;;;;;;3.72;1.00;;;;;;;;;;5139339;27;20083;-75
2021/12/19 12:28:57;;;;;;;1.55;0.52;;;;;;;;;;5158084;27;20550;-75
2021/12/19 12:31:25;;;;;;;0.93;0.40;;;;;;;;;;5157857;27;20470;-75
2021/12/19 12:33:52;;;;;;;0.70;0.40;;;;;;;;;;5157992;27;20023;-75
2021/12/19 12:36:19;;;;;;;1.98;0.38;;;;;;;;;;5157731;27;20026;-75
2021/12/19 12:38:50;;;;;;;1.73;0.30;;;;;;;;;;5157839;27;20489;-75
2021/12/19 12:41:28;;;;;;;;;;;;;;;;;;5158413;27;20106;-75
2021/12/19 12:44:04;;;;;;;0.80;0.20;;;;;;;;;;5157943;27;19926;-75
2021/12/19 12:46:31;;;;;;;1.17;0.35;;;;;;;;;;5157648;27;20042;-75
2021/12/19 12:49:00;;;;;;;1.02;0.32;;;;;;;;;;5157533;27;20022;-75
2021/12/19 12:51:31;;;;;;;1.50;0.40;;;;;;;;;;5157539;27;20087;-75
2021/12/19 12:54:14;;;;;;;1.05;0.40;;;;;;;;;;5157400;27;20039;-75
2021/12/19 12:56:48;;;;;;;0.80;0.20;;;;;;;;;;5157516;27;20023;-75
2021/12/19 12:59:16;;;;;;;1.08;0.50;;;;;;;;;;5157595;27;20015;-75
2021/12/19 13:01:47;;;;;;;2.88;0.68;;;;;;;;;;5138501;27;20110;-75
2021/12/19 13:04:17;;;;;;;1.30;0.50;;;;;;;;;;5157445;27;20029;-75
2021/12/19 13:06:46;;;;;;;1.02;0.40;;;;;;;;;;5138869;27;20037;-75
2021/12/19 13:09:28;;;;;;;2.67;0.60;;;;;;;;;;5156355;27;20041;-75
2021/12/19 13:11:58;;;;;;;2.00;0.50;;;;;;;;;;5157246;27;20375;-74
2021/12/19 13:14:27;;;;;;;1.38;0.50;;;;;;;;;;5138476;27;20031;-74
2021/12/19 13:16:55;;;;;;;1.48;0.40;;;;;;;;;;5138194;27;20023;-75
2021/12/19 13:19:36;;;;;;;2.28;0.60;;;;;;;;;;5157002;27;20042;-74
2021/12/19 13:22:04;;;;;;;0.88;0.30;;;;;;;;;;5157128;27;20014;-74
2021/12/19 13:24:34;;;;;;;1.23;0.60;;;;;;;;;;5138171;27;20427;-74
2021/12/19 13:27:05;;;;;;;1.33;0.50;;;;;;;;;;5138369;27;20030;-74
2021/12/19 13:29:32;;;;;;;1.90;0.77;;;;;;;;;;5156876;27;20029;-74
2021/12/19 13:32:18;;;;;;;1.80;0.50;;;;;;;;;;5138098;27;20030;-74
2021/12/19 13:34:45;;;;;;;1.13;0.40;;;;;;;;;;5156819;27;20025;-74
2021/12/19 13:37:12;;;;;;;1.45;0.40;;;;;;;;;;5138149;27;20018;-74
2021/12/19 13:39:41;;;;;;;2.03;0.43;;;;;;;;;;5156665;27;20015;-74
2021/12/19 13:42:09;;;;;;;2.47;0.32;;;;;;;;;;5156623;27;20494;-75
2021/12/19 13:44:36;;;;;;;0.40;0.40;;;;;;;;;;5156726;27;20023;-75
2021/12/19 13:47:12;;;;;;;2.92;0.40;;;;;;;;;;5156582;27;20023;-75
2021/12/19 13:49:40;;;;;;;2.33;0.50;;;;;;;;;;5156569;27;20023;-74
2021/12/19 13:52:08;;;;;;;1.50;0.40;;;;;;;;;;5137790;27;20053;-75
2021/12/19 13:54:38;;;;;;;4.32;0.55;;;;;;;;;;5137837;27;20034;-75
2021/12/19 13:57:16;;;;;;;2.13;0.50;;;;;;;;;;5156554;27;20026;-74
2021/12/19 13:59:43;;;;;;;3.45;0.63;;;;;;;;;;5137317;27;20103;-74
2021/12/19 14:02:11;;;;;;;1.17;0.50;;;;;;;;;;5156083;27;20019;-75
2021/12/19 14:04:38;;;;;;;2.35;0.45;;;;;;;;;;5156109;27;20027;-74
2021/12/19 14:07:11;;;;;;;1.77;0.50;;;;;;;;;;5156152;27;20023;-75
2021/12/19 14:09:45;;;;;;;2.08;0.50;;;;;;;;;;5156260;27;20094;-75
2021/12/19 14:12:25;;;;;;;1.27;0.40;;;;;;;;;;5155953;27;20037;-75
2021/12/19 14:14:52;;;;;;;2.28;0.55;;;;;;;;;;5137131;27;20550;-75
2021/12/19 14:17:19;;;;;;;1.38;0.40;;;;;;;;;;5155846;27;20019;-75
2021/12/19 14:19:51;;;;;;;1.73;0.52;;;;;;;;;;5136852;27;20075;-75
2021/12/19 14:22:20;;;;;;;1.55;0.45;;;;;;;;;;5137339;27;20117;-74
2021/12/19 14:25:03;;;;;;;1.17;0.50;;;;;;;;;;5137070;27;20022;-75
2021/12/19 14:27:38;;;;;;;1.48;0.50;;;;;;;;;;5136974;27;20018;-75
2021/12/19 14:30:07;;;;;;;2.00;0.70;;;;;;;;;;5155771;27;20057;-75
2021/12/19 14:32:36;;;;;;;1.95;0.80;;;;;;;;;;5137079;27;20023;-75
2021/12/19 14:35:17;;;;;;;2.28;0.50;;;;;;;;;;5137003;27;20462;-74
2021/12/19 14:37:46;;;;;;;0.70;0.40;;;;;;;;;;5155595;27;20378;-75
2021/12/19 14:40:20;;;;;;;1.42;0.50;;;;;;;;;;5155583;27;20018;-75
2021/12/19 14:42:48;;;;;;;1.40;0.50;;;;;;;;;;5155698;27;20386;-75
2021/12/19 14:45:27;;;;;;;1.35;0.50;;;;;;;;;;5136677;27;20440;-75
2021/12/19 14:48:01;;;;;;;1.15;0.50;;;;;;;;;;5155540;27;20474;-75
2021/12/19 14:50:30;;;;;;;1.85;0.50;;;;;;;;;;5136455;27;20022;-75
2021/12/19 14:52:58;;;;;;;2.15;0.50;;;;;;;;;;5155026;27;20402;-75
2021/12/19 14:55:27;;;;;;;2.42;0.70;;;;;;;;;;5155074;27;20029;-75
2021/12/19 14:57:54;;;;;;;2.47;0.70;;;;;;;;;;5155357;27;20027;-75
2021/12/19 15:00:21;;;;;;;1.33;0.65;;;;;;;;;;5155189;27;20026;-75
2021/12/19 15:02:49;;;;;;;0.57;0.40;;;;;;;;;;5136337;27;20358;-75
2021/12/19 15:05:16;;;;;;;1.77;0.50;;;;;;;;;;5136661;27;20027;-75
2021/12/19 15:07:45;;;;;;;1.55;0.60;;;;;;;;;;5136553;27;20383;-75
2021/12/19 15:10:13;;;;;;;1.52;0.50;;;;;;;;;;5155067;27;20019;-75
2021/12/19 15:12:41;;;;;;;2.53;0.70;;;;;;;;;;5154927;27;20075;-75
2021/12/19 15:15:08;;;;;;;1.38;0.60;;;;;;;;;;5136364;27;20236;-75
2021/12/19 15:17:35;;;;;;;1.60;0.80;;;;;;;;;;5136365;27;20023;-74
2021/12/19 15:20:02;;;;;;;1.05;0.30;;;;;;;;;;5154888;27;20383;-76
2021/12/19 15:22:31;;;;;;;1.00;0.47;;;;;;;;;;5154832;27;20019;-74
2021/12/19 15:24:58;;;;;;;1.23;0.57;;;;;;;;;;5136229;27;20027;-75
2021/12/19 15:27:26;;;;;;;3.90;0.77;;;;;;;;;;5154957;27;20434;-75
2021/12/19 15:29:53;;;;;;;1.67;0.50;;;;;;;;;;5154859;27;20042;-75
2021/12/19 15:32:22;;;;;;;3.03;0.60;;;;;;;;;;5154233;27;20054;-75
2021/12/19 15:34:49;;;;;;;0.90;0.55;;;;;;;;;;5154739;27;20071;-75
2021/12/19 15:37:16;;;;;;;1.48;0.60;;;;;;;;;;5135860;27;20481;-75
2021/12/19 15:39:43;;;;;;;1.90;0.43;;;;;;;;;;5135755;27;20026;-75
2021/12/19 15:42:11;;;;;;;2.53;0.70;;;;;;;;;;5136125;27;20046;-75
2021/12/19 15:44:38;;;;;;;1.63;0.50;;;;;;;;;;5154676;27;20314;-75
2021/12/19 15:47:05;;;;;;;1.65;0.65;;;;;;;;;;5154695;27;20027;-75
2021/12/19 15:49:33;;;;;;;2.88;0.70;;;;;;;;;;5154634;27;20070;-76
2021/12/19 15:52:00;;;;;;;1.73;0.45;;;;;;;;;;5154536;27;20037;-75
2021/12/19 15:54:30;;;;;;;1.23;0.50;;;;;;;;;;5154559;27;20018;-75
2021/12/19 15:57:00;;;;;;;1.70;0.60;;;;;;;;;;5154572;27;20015;-75
2021/12/19 15:59:28;;;;;;;1.50;0.45;;;;;;;;;;5135642;27;20022;-75
2021/12/19 16:01:55;;;;;;;2.83;0.50;;;;;;;;;;5154433;27;20420;-75
2021/12/19 16:04:23;;;;;;;2.65;0.82;;;;;;;;;;5154478;27;20023;-75
2021/12/19 16:06:50;;;;;;;2.67;0.82;;;;;;;;;;5154497;27;20022;-75
2021/12/19 16:09:17;;;;;;;1.13;0.70;;;;;;;;;;5154440;27;20071;-75
2021/12/19 16:11:44;;;;;;;2.00;0.60;;;;;;;;;;5135452;27;20038;-75
2021/12/19 16:14:11;;;;;;;1.67;0.45;;;;;;;;;;5154269;27;20474;-76
2021/12/19 16:16:39;;;;;;;2.17;0.80;;;;;;;;;;5135475;27;20031;-75
2021/12/19 16:19:07;;;;;;;2.25;0.50;;;;;;;;;;5135863;27;20046;-75
2021/12/19 16:21:34;;;;;;;1.77;0.60;;;;;;;;;;5154331;27;20470;-75
2021/12/19 16:24:01;;;;;;;1.83;0.65;;;;;;;;;;5154305;27;20019;-75
2021/12/19 16:26:29;;;;;;;1.20;0.60;;;;;;;;;;5135349;27;20023;-75
2021/12/19 16:28:56;;;;;;;2.38;0.70;;;;;;;;;;5154354;27;20102;-75
2021/12/19 16:31:23;;;;;;;3.97;1.13;;;;;;;;;;5135442;27;20023;-75
2021/12/19 16:33:50;;;;;;;2.05;0.77;;;;;;;;;;5135421;27;20027;-76
2021/12/19 16:36:20;;;;;;;2.75;0.80;;;;;;;;;;5154245;27;20031;-75
2021/12/19 16:38:49;;;;;;;1.20;0.50;;;;;;;;;;5135727;27;20026;-75
2021/12/19 16:41:24;;;;;;;4.10;0.90;;;;;;;;;;5135619;27;20019;-74
2021/12/19 16:43:51;;;;;;;1.80;0.70;;;;;;;;;;5156404;27;20041;-75
2021/12/19 16:46:18;;;;;;;1.98;0.80;;;;;;;;;;5158106;27;20027;-75
2021/12/19 16:48:45;;;;;;;3.78;0.80;;;;;;;;;;5157763;27;20102;-75
2021/12/19 16:51:12;;;;;;;1.48;0.68;;;;;;;;;;5157746;27;20037;-75
2021/12/19 16:53:40;;;;;;;3.55;0.85;;;;;;;;;;5157509;27;20042;-75
2021/12/19 16:56:08;;;;;;;2.17;0.70;;;;;;;;;;5138774;27;20110;-75
2021/12/19 16:58:35;;;;;;;3.40;1.05;;;;;;;;;;5157552;27;20015;-75